sensor_id;sensor_type;location;lat;lon;timestamp;pressure;altitude;pressure_sealevel;temperature
72236;BMP280;60146;52.498;13.462;2024-01-30T00:00:31;102151.75;;;4.08
72236;BMP280;60146;52.498;13.462;2024-01-30T00:02:56;102142.59;;;4.12
72236;BMP280;60146;52.498;13.462;2024-01-30T00:05:22;102130.00;;;4.22
72236;BMP280;60146;52.498;13.462;2024-01-30T00:07:47;102140.81;;;4.19
72236;BMP280;60146;52.498;13.462;2024-01-30T00:10:13;102141.00;;;4.23
72236;BMP280;60146;52.498;13.462;2024-01-30T00:12:38;102148.00;;;4.17
72236;BMP280;60146;52.498;13.462;2024-01-30T00:15:04;102136.63;;;4.18
72236;BMP280;60146;52.498;13.462;2024-01-30T00:17:30;102132.97;;;4.06
72236;BMP280;60146;52.498;13.462;2024-01-30T00:19:55;102119.81;;;4.01
72236;BMP280;60146;52.498;13.462;2024-01-30T00:22:21;102117.63;;;3.92
72236;BMP280;60146;52.498;13.462;2024-01-30T00:24:46;102110.03;;;3.90
72236;BMP280;60146;52.498;13.462;2024-01-30T00:27:11;102098.06;;;3.96
72236;BMP280;60146;52.498;13.462;2024-01-30T00:29:37;102096.69;;;3.93
72236;BMP280;60146;52.498;13.462;2024-01-30T00:32:02;102083.28;;;3.83
72236;BMP280;60146;52.498;13.462;2024-01-30T00:34:27;102078.31;;;3.88
72236;BMP280;60146;52.498;13.462;2024-01-30T00:36:53;102074.75;;;3.89
72236;BMP280;60146;52.498;13.462;2024-01-30T00:39:18;102086.09;;;3.88
72236;BMP280;60146;52.498;13.462;2024-01-30T00:41:45;102072.50;;;3.86
72236;BMP280;60146;52.498;13.462;2024-01-30T00:44:10;102075.91;;;3.87
72236;BMP280;60146;52.498;13.462;2024-01-30T00:46:35;102059.56;;;3.93
72236;BMP280;60146;52.498;13.462;2024-01-30T00:49:01;102070.50;;;3.76
72236;BMP280;60146;52.498;13.462;2024-01-30T00:51:26;102068.16;;;3.80
72236;BMP280;60146;52.498;13.462;2024-01-30T00:53:52;102073.31;;;3.74
72236;BMP280;60146;52.498;13.462;2024-01-30T00:56:17;102054.59;;;3.91
72236;BMP280;60146;52.498;13.462;2024-01-30T00:58:44;102071.72;;;3.73
72236;BMP280;60146;52.498;13.462;2024-01-30T01:01:09;102060.50;;;3.66
72236;BMP280;60146;52.498;13.462;2024-01-30T01:03:34;102048.75;;;3.64
72236;BMP280;60146;52.498;13.462;2024-01-30T01:06:00;102029.59;;;3.65
72236;BMP280;60146;52.498;13.462;2024-01-30T01:08:25;102031.19;;;3.66
72236;BMP280;60146;52.498;13.462;2024-01-30T01:10:50;102032.81;;;3.67
72236;BMP280;60146;52.498;13.462;2024-01-30T01:13:16;102025.81;;;3.61
72236;BMP280;60146;52.498;13.462;2024-01-30T01:15:41;102008.88;;;3.52
72236;BMP280;60146;52.498;13.462;2024-01-30T01:18:06;102008.28;;;3.50
72236;BMP280;60146;52.498;13.462;2024-01-30T01:20:32;102002.31;;;3.56
72236;BMP280;60146;52.498;13.462;2024-01-30T01:22:57;101985.31;;;3.47
72236;BMP280;60146;52.498;13.462;2024-01-30T01:25:22;101960.00;;;3.43
72236;BMP280;60146;52.498;13.462;2024-01-30T01:27:47;101964.00;;;3.45
72236;BMP280;60146;52.498;13.462;2024-01-30T01:30:17;101954.03;;;3.42
72236;BMP280;60146;52.498;13.462;2024-01-30T01:32:49;101961.63;;;3.44
72236;BMP280;60146;52.498;13.462;2024-01-30T01:35:26;101960.38;;;3.40
72236;BMP280;60146;52.498;13.462;2024-01-30T01:37:53;101949.44;;;3.38
72236;BMP280;60146;52.498;13.462;2024-01-30T01:40:23;101955.03;;;3.48
72236;BMP280;60146;52.498;13.462;2024-01-30T01:42:49;101967.59;;;3.44
72236;BMP280;60146;52.498;13.462;2024-01-30T01:45:15;101963.59;;;3.42
72236;BMP280;60146;52.498;13.462;2024-01-30T01:47:41;101965.78;;;3.32
72236;BMP280;60146;52.498;13.462;2024-01-30T01:50:07;101951.03;;;3.39
72236;BMP280;60146;52.498;13.462;2024-01-30T01:52:33;101954.03;;;3.42
72236;BMP280;60146;52.498;13.462;2024-01-30T01:54:58;101943.44;;;3.37
72236;BMP280;60146;52.498;13.462;2024-01-30T01:57:24;101959.41;;;3.35
72236;BMP280;60146;52.498;13.462;2024-01-30T01:59:49;101935.31;;;3.34
72236;BMP280;60146;52.498;13.462;2024-01-30T02:02:17;101947.88;;;3.43
72236;BMP280;60146;52.498;13.462;2024-01-30T02:04:42;101959.78;;;3.38
72236;BMP280;60146;52.498;13.462;2024-01-30T02:07:08;101947.84;;;3.37
72236;BMP280;60146;52.498;13.462;2024-01-30T02:09:33;101948.06;;;3.36
72236;BMP280;60146;52.498;13.462;2024-01-30T02:11:59;101949.44;;;3.38
72236;BMP280;60146;52.498;13.462;2024-01-30T02:14:24;101944.03;;;3.39
72236;BMP280;60146;52.498;13.462;2024-01-30T02:16:49;101941.47;;;3.27
72236;BMP280;60146;52.498;13.462;2024-01-30T02:19:15;101929.53;;;3.32
72236;BMP280;60146;52.498;13.462;2024-01-30T02:21:40;101916.75;;;3.31
72236;BMP280;60146;52.498;13.462;2024-01-30T02:24:05;101927.34;;;3.36
72236;BMP280;60146;52.498;13.462;2024-01-30T02:26:31;101914.78;;;3.45
72236;BMP280;60146;52.498;13.462;2024-01-30T02:28:56;101921.75;;;3.32
72236;BMP280;60146;52.498;13.462;2024-01-30T02:31:21;101906.19;;;3.26
72236;BMP280;60146;52.498;13.462;2024-01-30T02:33:47;101897.03;;;3.23
72236;BMP280;60146;52.498;13.462;2024-01-30T02:36:12;101897.66;;;3.32
72236;BMP280;60146;52.498;13.462;2024-01-30T02:38:38;101905.81;;;3.41
72236;BMP280;60146;52.498;13.462;2024-01-30T02:41:03;101912.97;;;3.39
72236;BMP280;60146;52.498;13.462;2024-01-30T02:43:28;101904.59;;;3.37
72236;BMP280;60146;52.498;13.462;2024-01-30T02:45:54;101898.41;;;3.38
72236;BMP280;60146;52.498;13.462;2024-01-30T02:48:19;101899.66;;;3.42
72236;BMP280;60146;52.498;13.462;2024-01-30T02:50:44;101898.66;;;3.43
72236;BMP280;60146;52.498;13.462;2024-01-30T02:53:11;101903.84;;;3.56
72236;BMP280;60146;52.498;13.462;2024-01-30T02:55:36;101905.84;;;3.54
72236;BMP280;60146;52.498;13.462;2024-01-30T02:58:01;101920.75;;;3.65
72236;BMP280;60146;52.498;13.462;2024-01-30T03:00:27;101910.63;;;3.51
72236;BMP280;60146;52.498;13.462;2024-01-30T03:02:52;101901.25;;;3.56
72236;BMP280;60146;52.498;13.462;2024-01-30T03:05:17;101891.06;;;3.48
72236;BMP280;60146;52.498;13.462;2024-01-30T03:07:43;101878.34;;;3.53
72236;BMP280;60146;52.498;13.462;2024-01-30T03:10:08;101885.50;;;3.51
72236;BMP280;60146;52.498;13.462;2024-01-30T03:12:33;101878.72;;;3.44
72236;BMP280;60146;52.498;13.462;2024-01-30T03:14:59;101880.72;;;3.42
72236;BMP280;60146;52.498;13.462;2024-01-30T03:17:24;101848.03;;;3.35
72236;BMP280;60146;52.498;13.462;2024-01-30T03:19:50;101834.88;;;3.30
72236;BMP280;60146;52.498;13.462;2024-01-30T03:22:15;101810.19;;;3.34
72236;BMP280;60146;52.498;13.462;2024-01-30T03:24:40;101807.19;;;3.24
72236;BMP280;60146;52.498;13.462;2024-01-30T03:27:06;101787.06;;;3.26
72236;BMP280;60146;52.498;13.462;2024-01-30T03:29:32;101778.72;;;3.24
72236;BMP280;60146;52.498;13.462;2024-01-30T03:31:58;101765.53;;;3.19
72236;BMP280;60146;52.498;13.462;2024-01-30T03:34:23;101755.59;;;3.22
72236;BMP280;60146;52.498;13.462;2024-01-30T03:36:48;101744.84;;;3.19
72236;BMP280;60146;52.498;13.462;2024-01-30T03:39:13;101750.59;;;3.21
72236;BMP280;60146;52.498;13.462;2024-01-30T03:41:42;101760.78;;;3.29
72236;BMP280;60146;52.498;13.462;2024-01-30T03:44:07;101755.81;;;3.34
72236;BMP280;60146;52.498;13.462;2024-01-30T03:46:32;101753.41;;;3.26
72236;BMP280;60146;52.498;13.462;2024-01-30T03:48:58;101748.22;;;3.26
72236;BMP280;60146;52.498;13.462;2024-01-30T03:51:23;101760.59;;;3.24
72236;BMP280;60146;52.498;13.462;2024-01-30T03:53:48;101724.34;;;3.24
72236;BMP280;60146;52.498;13.462;2024-01-30T03:56:14;101705.00;;;3.20
72236;BMP280;60146;52.498;13.462;2024-01-30T03:58:39;101688.28;;;3.16
72236;BMP280;60146;52.498;13.462;2024-01-30T04:01:05;101675.53;;;3.14
72236;BMP280;60146;52.498;13.462;2024-01-30T04:03:30;101651.44;;;3.14
72236;BMP280;60146;52.498;13.462;2024-01-30T04:05:55;101638.91;;;3.11
72236;BMP280;60146;52.498;13.462;2024-01-30T04:08:21;101634.50;;;3.18
72236;BMP280;60146;52.498;13.462;2024-01-30T04:10:47;101624.97;;;3.12
72236;BMP280;60146;52.498;13.462;2024-01-30T04:13:13;101625.38;;;3.09
72236;BMP280;60146;52.498;13.462;2024-01-30T04:15:38;101605.84;;;3.13
72236;BMP280;60146;52.498;13.462;2024-01-30T04:18:04;101603.03;;;3.14
72236;BMP280;60146;52.498;13.462;2024-01-30T04:20:29;101596.69;;;3.11
72236;BMP280;60146;52.498;13.462;2024-01-30T04:22:55;101585.50;;;3.16
72236;BMP280;60146;52.498;13.462;2024-01-30T04:25:20;101574.56;;;3.14
72236;BMP280;60146;52.498;13.462;2024-01-30T04:27:46;101578.34;;;3.18
72236;BMP280;60146;52.498;13.462;2024-01-30T04:30:11;101586.31;;;3.17
72236;BMP280;60146;52.498;13.462;2024-01-30T04:32:36;101579.72;;;3.27
72236;BMP280;60146;52.498;13.462;2024-01-30T04:35:02;101560.38;;;3.30
72236;BMP280;60146;52.498;13.462;2024-01-30T04:37:27;101574.91;;;3.31
72236;BMP280;60146;52.498;13.462;2024-01-30T04:39:53;101569.94;;;3.36
72236;BMP280;60146;52.498;13.462;2024-01-30T04:42:19;101561.38;;;3.35
72236;BMP280;60146;52.498;13.462;2024-01-30T04:44:44;101536.44;;;3.40
72236;BMP280;60146;52.498;13.462;2024-01-30T04:47:10;101562.50;;;3.39
72236;BMP280;60146;52.498;13.462;2024-01-30T04:49:39;101557.72;;;3.42
72236;BMP280;60146;52.498;13.462;2024-01-30T04:52:05;101532.41;;;3.44
72236;BMP280;60146;52.498;13.462;2024-01-30T04:54:31;101547.31;;;3.49
72236;BMP280;60146;52.498;13.462;2024-01-30T04:56:56;101565.88;;;3.39
72236;BMP280;60146;52.498;13.462;2024-01-30T04:59:21;101556.19;;;3.35
72236;BMP280;60146;52.498;13.462;2024-01-30T05:01:47;101542.66;;;3.27
72236;BMP280;60146;52.498;13.462;2024-01-30T05:04:12;101529.72;;;3.20
72236;BMP280;60146;52.498;13.462;2024-01-30T05:06:37;101509.22;;;3.19
72236;BMP280;60146;52.498;13.462;2024-01-30T05:09:03;101515.59;;;3.23
72236;BMP280;60146;52.498;13.462;2024-01-30T05:11:31;101537.28;;;3.28
72236;BMP280;60146;52.498;13.462;2024-01-30T05:13:56;101547.63;;;3.28
72236;BMP280;60146;52.498;13.462;2024-01-30T05:16:22;101541.44;;;3.36
72236;BMP280;60146;52.498;13.462;2024-01-30T05:18:48;101542.19;;;3.36
72236;BMP280;60146;52.498;13.462;2024-01-30T05:21:13;101547.63;;;3.35
72236;BMP280;60146;52.498;13.462;2024-01-30T05:23:39;101553.41;;;3.30
72236;BMP280;60146;52.498;13.462;2024-01-30T05:26:05;101527.91;;;3.34
72236;BMP280;60146;52.498;13.462;2024-01-30T05:28:32;101518.19;;;3.23
72236;BMP280;60146;52.498;13.462;2024-01-30T05:30:57;101497.25;;;3.24
72236;BMP280;60146;52.498;13.462;2024-01-30T05:33:22;101514.38;;;3.25
72236;BMP280;60146;52.498;13.462;2024-01-30T05:35:47;101516.56;;;3.28
72236;BMP280;60146;52.498;13.462;2024-01-30T05:38:14;101505.41;;;3.34
72236;BMP280;60146;52.498;13.462;2024-01-30T05:40:40;101511.81;;;3.25
72236;BMP280;60146;52.498;13.462;2024-01-30T05:43:05;101506.63;;;3.19
72236;BMP280;60146;52.498;13.462;2024-01-30T05:45:30;101467.06;;;3.12
72236;BMP280;60146;52.498;13.462;2024-01-30T05:47:56;101431.13;;;3.28
72236;BMP280;60146;52.498;13.462;2024-01-30T05:50:21;101434.97;;;3.13
72236;BMP280;60146;52.498;13.462;2024-01-30T05:52:48;101409.88;;;3.13
72236;BMP280;60146;52.498;13.462;2024-01-30T05:55:13;101406.66;;;3.18
72236;BMP280;60146;52.498;13.462;2024-01-30T05:57:39;101416.59;;;3.21
72236;BMP280;60146;52.498;13.462;2024-01-30T06:00:05;101427.34;;;3.24
72236;BMP280;60146;52.498;13.462;2024-01-30T06:02:31;101409.81;;;3.26
72236;BMP280;60146;52.498;13.462;2024-01-30T06:04:56;101409.03;;;3.26
72236;BMP280;60146;52.498;13.462;2024-01-30T06:07:22;101406.25;;;3.21
72236;BMP280;60146;52.498;13.462;2024-01-30T06:09:47;101389.19;;;3.13
72236;BMP280;60146;52.498;13.462;2024-01-30T06:12:12;101388.53;;;3.18
72236;BMP280;60146;52.498;13.462;2024-01-30T06:14:38;101371.78;;;3.20
72236;BMP280;60146;52.498;13.462;2024-01-30T06:17:03;101371.63;;;3.15
72236;BMP280;60146;52.498;13.462;2024-01-30T06:19:30;101346.13;;;3.19
72236;BMP280;60146;52.498;13.462;2024-01-30T06:21:55;101378.16;;;3.24
72236;BMP280;60146;52.498;13.462;2024-01-30T06:24:20;101382.38;;;3.19
72236;BMP280;60146;52.498;13.462;2024-01-30T06:26:46;101381.97;;;3.22
72236;BMP280;60146;52.498;13.462;2024-01-30T06:29:11;101370.19;;;3.26
72236;BMP280;60146;52.498;13.462;2024-01-30T06:31:40;101407.84;;;3.22
72236;BMP280;60146;52.498;13.462;2024-01-30T06:34:06;101393.06;;;3.29
72236;BMP280;60146;52.498;13.462;2024-01-30T06:36:32;101387.50;;;3.32
72236;BMP280;60146;52.498;13.462;2024-01-30T06:38:57;101420.28;;;3.37
72236;BMP280;60146;52.498;13.462;2024-01-30T06:41:22;101417.91;;;3.36
72236;BMP280;60146;52.498;13.462;2024-01-30T06:43:48;101426.91;;;3.34
72236;BMP280;60146;52.498;13.462;2024-01-30T06:46:14;101431.09;;;3.35
72236;BMP280;60146;52.498;13.462;2024-01-30T06:48:39;101397.25;;;3.30
72236;BMP280;60146;52.498;13.462;2024-01-30T06:51:05;101378.72;;;3.33
72236;BMP280;60146;52.498;13.462;2024-01-30T06:53:31;101387.38;;;3.44
72236;BMP280;60146;52.498;13.462;2024-01-30T06:55:56;101390.66;;;3.34
72236;BMP280;60146;52.498;13.462;2024-01-30T06:58:21;101406.19;;;3.34
72236;BMP280;60146;52.498;13.462;2024-01-30T07:00:47;101393.84;;;3.36
72236;BMP280;60146;52.498;13.462;2024-01-30T07:03:12;101411.50;;;3.38
72236;BMP280;60146;52.498;13.462;2024-01-30T07:05:37;101433.00;;;3.39
72236;BMP280;60146;52.498;13.462;2024-01-30T07:08:03;101436.41;;;3.39
72236;BMP280;60146;52.498;13.462;2024-01-30T07:10:28;101459.47;;;3.47
72236;BMP280;60146;52.498;13.462;2024-01-30T07:12:54;101449.97;;;3.41
72236;BMP280;60146;52.498;13.462;2024-01-30T07:15:19;101441.34;;;3.47
72236;BMP280;60146;52.498;13.462;2024-01-30T07:17:45;101451.31;;;3.50
72236;BMP280;60146;52.498;13.462;2024-01-30T07:20:11;101460.41;;;3.59
72236;BMP280;60146;52.498;13.462;2024-01-30T07:22:36;101490.47;;;3.60
72236;BMP280;60146;52.498;13.462;2024-01-30T07:25:05;101488.41;;;3.68
72236;BMP280;60146;52.498;13.462;2024-01-30T07:27:31;101502.34;;;3.74
72236;BMP280;60146;52.498;13.462;2024-01-30T07:29:56;101515.16;;;3.69
72236;BMP280;60146;52.498;13.462;2024-01-30T07:32:22;101514.72;;;3.72
72236;BMP280;60146;52.498;13.462;2024-01-30T07:34:47;101499.94;;;3.79
72236;BMP280;60146;52.498;13.462;2024-01-30T07:37:13;101518.97;;;3.90
72236;BMP280;60146;52.498;13.462;2024-01-30T07:39:41;101536.41;;;4.01
72236;BMP280;60146;52.498;13.462;2024-01-30T07:42:06;101551.88;;;4.14
72236;BMP280;60146;52.498;13.462;2024-01-30T07:44:31;101589.13;;;4.25
72236;BMP280;60146;52.498;13.462;2024-01-30T07:46:57;101580.72;;;4.23
72236;BMP280;60146;52.498;13.462;2024-01-30T07:49:22;101612.50;;;4.19
72236;BMP280;60146;52.498;13.462;2024-01-30T07:51:47;101595.50;;;4.23
72236;BMP280;60146;52.498;13.462;2024-01-30T07:54:13;101589.47;;;4.29
72236;BMP280;60146;52.498;13.462;2024-01-30T08:03:25;101780.84;;;4.64
72236;BMP280;60146;52.498;13.462;2024-01-30T08:05:50;101772.22;;;4.69
72236;BMP280;60146;52.498;13.462;2024-01-30T08:08:16;101809.28;;;4.76
72236;BMP280;60146;52.498;13.462;2024-01-30T08:10:41;101826.66;;;4.76
72236;BMP280;60146;52.498;13.462;2024-01-30T08:13:06;101830.53;;;4.97
72236;BMP280;60146;52.498;13.462;2024-01-30T08:15:33;101850.28;;;5.05
72236;BMP280;60146;52.498;13.462;2024-01-30T08:17:59;101877.03;;;5.05
72236;BMP280;60146;52.498;13.462;2024-01-30T08:20:25;101911.34;;;5.13
72236;BMP280;60146;52.498;13.462;2024-01-30T08:22:50;101902.84;;;5.24
72236;BMP280;60146;52.498;13.462;2024-01-30T08:25:16;101928.78;;;5.37
72236;BMP280;60146;52.498;13.462;2024-01-30T08:27:41;101935.28;;;5.46
72236;BMP280;60146;52.498;13.462;2024-01-30T08:30:07;101951.81;;;5.57
72236;BMP280;60146;52.498;13.462;2024-01-30T08:32:32;101991.34;;;5.90
72236;BMP280;60146;52.498;13.462;2024-01-30T08:34:58;101998.06;;;5.73
72236;BMP280;60146;52.498;13.462;2024-01-30T08:37:23;101992.88;;;5.73
72236;BMP280;60146;52.498;13.462;2024-01-30T08:39:49;102017.47;;;5.77
72236;BMP280;60146;52.498;13.462;2024-01-30T08:42:14;102019.97;;;5.90
72236;BMP280;60146;52.498;13.462;2024-01-30T08:44:40;102015.59;;;6.08
72236;BMP280;60146;52.498;13.462;2024-01-30T08:47:05;102031.31;;;6.19
72236;BMP280;60146;52.498;13.462;2024-01-30T08:49:31;102052.38;;;6.35
72236;BMP280;60146;52.498;13.462;2024-01-30T08:51:56;102068.91;;;6.64
72236;BMP280;60146;52.498;13.462;2024-01-30T08:54:22;102089.09;;;6.86
72236;BMP280;60146;52.498;13.462;2024-01-30T08:56:48;102113.97;;;7.18
72236;BMP280;60146;52.498;13.462;2024-01-30T08:59:13;102133.72;;;7.43
72236;BMP280;60146;52.498;13.462;2024-01-30T09:01:39;102157.41;;;7.99
72236;BMP280;60146;52.498;13.462;2024-01-30T09:04:04;102208.50;;;8.57
72236;BMP280;60146;52.498;13.462;2024-01-30T09:06:30;102253.63;;;8.98
72236;BMP280;60146;52.498;13.462;2024-01-30T09:08:56;102266.56;;;9.27
72236;BMP280;60146;52.498;13.462;2024-01-30T09:11:23;102283.06;;;9.66
72236;BMP280;60146;52.498;13.462;2024-01-30T09:13:48;102301.13;;;9.78
72236;BMP280;60146;52.498;13.462;2024-01-30T09:16:13;102330.28;;;10.09
72236;BMP280;60146;52.498;13.462;2024-01-30T09:18:41;102350.19;;;10.10
72236;BMP280;60146;52.498;13.462;2024-01-30T09:21:06;102343.75;;;9.90
72236;BMP280;60146;52.498;13.462;2024-01-30T09:23:31;102351.69;;;9.79
72236;BMP280;60146;52.498;13.462;2024-01-30T09:25:57;102350.00;;;10.12
72236;BMP280;60146;52.498;13.462;2024-01-30T09:28:23;102352.69;;;10.16
72236;BMP280;60146;52.498;13.462;2024-01-30T09:30:48;102358.09;;;9.99
72236;BMP280;60146;52.498;13.462;2024-01-30T09:33:14;102354.00;;;10.03
72236;BMP280;60146;52.498;13.462;2024-01-30T09:35:39;102351.41;;;10.03
72236;BMP280;60146;52.498;13.462;2024-01-30T09:38:04;102359.69;;;10.11
72236;BMP280;60146;52.498;13.462;2024-01-30T09:40:30;102359.84;;;10.21
72236;BMP280;60146;52.498;13.462;2024-01-30T09:42:56;102351.72;;;10.34
72236;BMP280;60146;52.498;13.462;2024-01-30T09:45:25;102361.63;;;10.32
72236;BMP280;60146;52.498;13.462;2024-01-30T09:47:52;102365.28;;;10.03
72236;BMP280;60146;52.498;13.462;2024-01-30T09:50:41;102364.31;;;10.09
72236;BMP280;60146;52.498;13.462;2024-01-30T09:53:25;102357.19;;;10.32
72236;BMP280;60146;52.498;13.462;2024-01-30T09:55:51;102367.72;;;10.37
72236;BMP280;60146;52.498;13.462;2024-01-30T09:58:17;102371.75;;;10.55
72236;BMP280;60146;52.498;13.462;2024-01-30T10:00:42;102362.19;;;10.77
72236;BMP280;60146;52.498;13.462;2024-01-30T10:03:08;102368.50;;;11.13
72236;BMP280;60146;52.498;13.462;2024-01-30T10:05:35;102360.75;;;11.60
72236;BMP280;60146;52.498;13.462;2024-01-30T10:08:05;102378.13;;;12.08
72236;BMP280;60146;52.498;13.462;2024-01-30T10:10:31;102390.41;;;12.23
72236;BMP280;60146;52.498;13.462;2024-01-30T10:12:56;102400.06;;;12.70
72236;BMP280;60146;52.498;13.462;2024-01-30T10:15:22;102406.97;;;12.80
72236;BMP280;60146;52.498;13.462;2024-01-30T10:17:47;102407.41;;;13.03
72236;BMP280;60146;52.498;13.462;2024-01-30T10:20:13;102407.38;;;12.98
72236;BMP280;60146;52.498;13.462;2024-01-30T10:22:40;102406.72;;;13.13
72236;BMP280;60146;52.498;13.462;2024-01-30T10:25:07;102416.25;;;12.88
72236;BMP280;60146;52.498;13.462;2024-01-30T10:27:33;102420.97;;;12.86
72236;BMP280;60146;52.498;13.462;2024-01-30T10:29:58;102411.56;;;12.59
72236;BMP280;60146;52.498;13.462;2024-01-30T10:32:25;102404.72;;;12.63
72236;BMP280;60146;52.498;13.462;2024-01-30T10:34:50;102403.69;;;12.95
72236;BMP280;60146;52.498;13.462;2024-01-30T10:37:17;102414.13;;;12.85
72236;BMP280;60146;52.498;13.462;2024-01-30T10:39:45;102406.22;;;12.85
72236;BMP280;60146;52.498;13.462;2024-01-30T10:42:15;102404.25;;;13.01
72236;BMP280;60146;52.498;13.462;2024-01-30T10:44:52;102404.88;;;13.13
72236;BMP280;60146;52.498;13.462;2024-01-30T10:47:28;102408.72;;;12.39
72236;BMP280;60146;52.498;13.462;2024-01-30T10:49:54;102403.47;;;12.39
72236;BMP280;60146;52.498;13.462;2024-01-30T10:52:21;102410.81;;;12.38
72236;BMP280;60146;52.498;13.462;2024-01-30T10:54:50;102406.91;;;12.45
72236;BMP280;60146;52.498;13.462;2024-01-30T10:57:15;102407.41;;;12.42
72236;BMP280;60146;52.498;13.462;2024-01-30T10:59:42;102418.56;;;12.54
72236;BMP280;60146;52.498;13.462;2024-01-30T11:02:09;102405.50;;;12.63
72236;BMP280;60146;52.498;13.462;2024-01-30T11:04:38;102407.25;;;12.53
72236;BMP280;60146;52.498;13.462;2024-01-30T11:07:19;102413.09;;;12.08
72236;BMP280;60146;52.498;13.462;2024-01-30T11:12:27;102417.63;;;12.64
72236;BMP280;60146;52.498;13.462;2024-01-30T11:15:06;102411.28;;;12.60
72236;BMP280;60146;52.498;13.462;2024-01-30T11:20:17;102409.13;;;12.53
72236;BMP280;60146;52.498;13.462;2024-01-30T11:22:45;102403.84;;;12.27
72236;BMP280;60146;52.498;13.462;2024-01-30T11:25:16;102396.56;;;11.87
72236;BMP280;60146;52.498;13.462;2024-01-30T11:27:45;102405.31;;;11.18
72236;BMP280;60146;52.498;13.462;2024-01-30T11:30:27;102397.06;;;10.94
72236;BMP280;60146;52.498;13.462;2024-01-30T11:33:10;102401.00;;;11.12
72236;BMP280;60146;52.498;13.462;2024-01-30T11:35:41;102394.13;;;10.74
72236;BMP280;60146;52.498;13.462;2024-01-30T11:38:07;102400.88;;;10.70
72236;BMP280;60146;52.498;13.462;2024-01-30T11:40:33;102390.28;;;10.38
72236;BMP280;60146;52.498;13.462;2024-01-30T11:43:00;102396.06;;;10.51
72236;BMP280;60146;52.498;13.462;2024-01-30T11:45:27;102398.38;;;10.64
72236;BMP280;60146;52.498;13.462;2024-01-30T11:47:53;102402.94;;;10.68
72236;BMP280;60146;52.498;13.462;2024-01-30T11:50:19;102393.19;;;10.96
72236;BMP280;60146;52.498;13.462;2024-01-30T11:52:44;102391.00;;;10.93
72236;BMP280;60146;52.498;13.462;2024-01-30T11:55:10;102395.81;;;10.96
72236;BMP280;60146;52.498;13.462;2024-01-30T11:57:35;102396.59;;;10.96
72236;BMP280;60146;52.498;13.462;2024-01-30T12:00:03;102395.41;;;10.88
72236;BMP280;60146;52.498;13.462;2024-01-30T12:02:36;102382.97;;;10.83
72236;BMP280;60146;52.498;13.462;2024-01-30T12:05:05;102380.34;;;10.67
72236;BMP280;60146;52.498;13.462;2024-01-30T12:07:31;102381.16;;;11.16
72236;BMP280;60146;52.498;13.462;2024-01-30T12:09:56;102380.97;;;11.38
72236;BMP280;60146;52.498;13.462;2024-01-30T12:12:26;102372.72;;;11.51
72236;BMP280;60146;52.498;13.462;2024-01-30T12:14:52;102370.34;;;11.92
72236;BMP280;60146;52.498;13.462;2024-01-30T12:17:29;102369.59;;;11.96
72236;BMP280;60146;52.498;13.462;2024-01-30T12:20:12;102361.09;;;12.10
72236;BMP280;60146;52.498;13.462;2024-01-30T12:22:40;102358.22;;;11.44
72236;BMP280;60146;52.498;13.462;2024-01-30T12:25:10;102359.59;;;11.51
72236;BMP280;60146;52.498;13.462;2024-01-30T12:27:36;102360.06;;;11.48
72236;BMP280;60146;52.498;13.462;2024-01-30T12:30:08;102351.22;;;11.54
72236;BMP280;60146;52.498;13.462;2024-01-30T12:32:39;102353.22;;;11.47
72236;BMP280;60146;52.498;13.462;2024-01-30T12:35:08;102335.78;;;11.37
72236;BMP280;60146;52.498;13.462;2024-01-30T12:37:34;102339.59;;;11.45
72236;BMP280;60146;52.498;13.462;2024-01-30T12:40:00;102340.28;;;11.41
72236;BMP280;60146;52.498;13.462;2024-01-30T12:42:26;102340.63;;;11.44
72236;BMP280;60146;52.498;13.462;2024-01-30T12:44:52;102329.41;;;11.75
72236;BMP280;60146;52.498;13.462;2024-01-30T12:47:17;102318.84;;;11.49
72236;BMP280;60146;52.498;13.462;2024-01-30T12:49:43;102319.44;;;11.72
72236;BMP280;60146;52.498;13.462;2024-01-30T12:52:10;102312.53;;;12.17
72236;BMP280;60146;52.498;13.462;2024-01-30T12:54:36;102316.78;;;12.23
72236;BMP280;60146;52.498;13.462;2024-01-30T12:57:02;102310.66;;;12.44
72236;BMP280;60146;52.498;13.462;2024-01-30T12:59:27;102303.97;;;12.62
72236;BMP280;60146;52.498;13.462;2024-01-30T13:01:52;102300.59;;;13.12
72236;BMP280;60146;52.498;13.462;2024-01-30T13:04:18;102295.34;;;13.17
72236;BMP280;60146;52.498;13.462;2024-01-30T13:06:43;102300.59;;;13.12
72236;BMP280;60146;52.498;13.462;2024-01-30T13:09:08;102308.28;;;13.28
72236;BMP280;60146;52.498;13.462;2024-01-30T13:11:34;102305.41;;;13.30
72236;BMP280;60146;52.498;13.462;2024-01-30T13:14:00;102287.97;;;13.19
72236;BMP280;60146;52.498;13.462;2024-01-30T13:16:25;102295.28;;;13.02
72236;BMP280;60146;52.498;13.462;2024-01-30T13:18:50;102301.56;;;12.97
72236;BMP280;60146;52.498;13.462;2024-01-30T13:21:16;102299.03;;;13.16
72236;BMP280;60146;52.498;13.462;2024-01-30T13:23:42;102299.75;;;12.97
72236;BMP280;60146;52.498;13.462;2024-01-30T13:26:08;102292.44;;;13.18
72236;BMP280;60146;52.498;13.462;2024-01-30T13:28:33;102284.59;;;13.23
72236;BMP280;60146;52.498;13.462;2024-01-30T13:30:58;102286.41;;;13.23
72236;BMP280;60146;52.498;13.462;2024-01-30T13:33:24;102282.63;;;12.95
72236;BMP280;60146;52.498;13.462;2024-01-30T13:35:50;102274.56;;;12.70
72236;BMP280;60146;52.498;13.462;2024-01-30T13:38:15;102271.34;;;12.58
72236;BMP280;60146;52.498;13.462;2024-01-30T13:40:41;102266.28;;;12.52
72236;BMP280;60146;52.498;13.462;2024-01-30T13:43:06;102268.59;;;12.44
72236;BMP280;60146;52.498;13.462;2024-01-30T13:45:31;102279.00;;;12.34
72236;BMP280;60146;52.498;13.462;2024-01-30T13:47:57;102277.34;;;12.23
72236;BMP280;60146;52.498;13.462;2024-01-30T13:50:22;102283.03;;;12.11
72236;BMP280;60146;52.498;13.462;2024-01-30T13:52:48;102296.13;;;11.80
72236;BMP280;60146;52.498;13.462;2024-01-30T13:55:13;102284.44;;;11.66
72236;BMP280;60146;52.498;13.462;2024-01-30T13:57:38;102293.63;;;11.69